sensor_id;sensor_type;location;lat;lon;timestamp;temperature;humidity
31263;DHT22;17892;52.080;9.006;2023-10-19T00:00:36;10.60;99.90
31263;DHT22;17892;52.080;9.006;2023-10-19T00:03:09;10.60;99.90
31263;DHT22;17892;52.080;9.006;2023-10-19T00:05:37;10.50;99.90
31263;DHT22;17892;52.080;9.006;2023-10-19T00:08:05;10.50;99.90
31263;DHT22;17892;52.080;9.006;2023-10-19T00:10:47;10.50;99.90
31263;DHT22;17892;52.080;9.006;2023-10-19T00:13:19;10.50;99.90
31263;DHT22;17892;52.080;9.006;2023-10-19T00:15:45;10.50;99.90
31263;DHT22;17892;52.080;9.006;2023-10-19T00:18:17;10.50;99.90
31263;DHT22;17892;52.080;9.006;2023-10-19T00:20:48;10.40;99.90
31263;DHT22;17892;52.080;9.006;2023-10-19T00:23:23;10.40;99.90
31263;DHT22;17892;52.080;9.006;2023-10-19T00:25:57;10.40;99.90
31263;DHT22;17892;52.080;9.006;2023-10-19T00:28:24;10.40;99.90
31263;DHT22;17892;52.080;9.006;2023-10-19T00:30:52;10.40;99.90
31263;DHT22;17892;52.080;9.006;2023-10-19T00:33:19;10.30;99.90
31263;DHT22;17892;52.080;9.006;2023-10-19T00:35:47;10.30;99.90
31263;DHT22;17892;52.080;9.006;2023-10-19T00:38:24;10.30;99.90
31263;DHT22;17892;52.080;9.006;2023-10-19T00:40:55;10.30;99.90
31263;DHT22;17892;52.080;9.006;2023-10-19T00:43:34;10.30;99.90
31263;DHT22;17892;52.080;9.006;2023-10-19T00:46:03;10.30;99.90
31263;DHT22;17892;52.080;9.006;2023-10-19T00:48:44;10.30;99.90
31263;DHT22;17892;52.080;9.006;2023-10-19T00:51:16;10.30;99.90
31263;DHT22;17892;52.080;9.006;2023-10-19T00:53:57;10.30;99.90
31263;DHT22;17892;52.080;9.006;2023-10-19T00:56:25;10.20;99.90
31263;DHT22;17892;52.080;9.006;2023-10-19T00:58:55;10.20;99.90
31263;DHT22;17892;52.080;9.006;2023-10-19T01:01:28;10.20;99.90
31263;DHT22;17892;52.080;9.006;2023-10-19T01:03:55;10.20;99.90
31263;DHT22;17892;52.080;9.006;2023-10-19T01:06:25;10.20;99.90
31263;DHT22;17892;52.080;9.006;2023-10-19T01:08:52;10.20;99.90
31263;DHT22;17892;52.080;9.006;2023-10-19T01:11:20;10.20;99.90
31263;DHT22;17892;52.080;9.006;2023-10-19T01:13:47;10.20;99.90
31263;DHT22;17892;52.080;9.006;2023-10-19T01:16:17;10.20;99.90
31263;DHT22;17892;52.080;9.006;2023-10-19T01:18:50;10.20;99.90
31263;DHT22;17892;52.080;9.006;2023-10-19T01:21:23;10.20;99.90
31263;DHT22;17892;52.080;9.006;2023-10-19T01:24:06;10.20;99.90
31263;DHT22;17892;52.080;9.006;2023-10-19T01:26:34;10.20;99.90
31263;DHT22;17892;52.080;9.006;2023-10-19T01:29:03;10.20;99.90
31263;DHT22;17892;52.080;9.006;2023-10-19T01:31:39;10.20;99.90
31263;DHT22;17892;52.080;9.006;2023-10-19T01:34:16;10.20;99.90
31263;DHT22;17892;52.080;9.006;2023-10-19T01:36:45;10.20;99.90
31263;DHT22;17892;52.080;9.006;2023-10-19T01:39:15;10.20;99.90
31263;DHT22;17892;52.080;9.006;2023-10-19T01:41:44;10.30;99.90
31263;DHT22;17892;52.080;9.006;2023-10-19T01:44:10;10.30;99.90
31263;DHT22;17892;52.080;9.006;2023-10-19T01:46:40;10.30;99.90
31263;DHT22;17892;52.080;9.006;2023-10-19T01:49:09;10.30;99.90
31263;DHT22;17892;52.080;9.006;2023-10-19T01:51:36;10.30;99.90
31263;DHT22;17892;52.080;9.006;2023-10-19T01:54:05;10.30;99.90
31263;DHT22;17892;52.080;9.006;2023-10-19T01:56:32;10.40;99.90
31263;DHT22;17892;52.080;9.006;2023-10-19T01:59:02;10.40;99.90
31263;DHT22;17892;52.080;9.006;2023-10-19T02:01:29;10.30;99.90
31263;DHT22;17892;52.080;9.006;2023-10-19T02:03:59;10.30;99.90
31263;DHT22;17892;52.080;9.006;2023-10-19T02:06:30;10.30;99.90
31263;DHT22;17892;52.080;9.006;2023-10-19T02:09:12;10.40;99.90
31263;DHT22;17892;52.080;9.006;2023-10-19T02:11:51;10.40;99.90
31263;DHT22;17892;52.080;9.006;2023-10-19T02:14:27;10.40;99.90
31263;DHT22;17892;52.080;9.006;2023-10-19T02:16:58;10.40;99.90
31263;DHT22;17892;52.080;9.006;2023-10-19T02:19:29;10.40;99.90
31263;DHT22;17892;52.080;9.006;2023-10-19T02:21:57;10.40;99.90
31263;DHT22;17892;52.080;9.006;2023-10-19T02:24:24;10.40;99.90
31263;DHT22;17892;52.080;9.006;2023-10-19T02:37:54;10.40;99.90
31263;DHT22;17892;52.080;9.006;2023-10-19T02:40:21;10.40;99.90
31263;DHT22;17892;52.080;9.006;2023-10-19T02:42:49;10.40;99.90
31263;DHT22;17892;52.080;9.006;2023-10-19T02:45:19;10.40;99.90
31263;DHT22;17892;52.080;9.006;2023-10-19T02:47:45;10.40;99.90
31263;DHT22;17892;52.080;9.006;2023-10-19T02:50:12;10.40;99.90
31263;DHT22;17892;52.080;9.006;2023-10-19T02:52:48;10.40;99.90
31263;DHT22;17892;52.080;9.006;2023-10-19T02:55:14;10.40;99.90
31263;DHT22;17892;52.080;9.006;2023-10-19T02:57:42;10.40;99.90
31263;DHT22;17892;52.080;9.006;2023-10-19T03:00:13;10.40;99.90
31263;DHT22;17892;52.080;9.006;2023-10-19T03:02:40;10.40;99.90
31263;DHT22;17892;52.080;9.006;2023-10-19T03:05:06;10.40;99.90
31263;DHT22;17892;52.080;9.006;2023-10-19T03:07:40;10.40;99.90
31263;DHT22;17892;52.080;9.006;2023-10-19T03:10:09;10.40;99.90
31263;DHT22;17892;52.080;9.006;2023-10-19T03:12:50;10.40;99.90
31263;DHT22;17892;52.080;9.006;2023-10-19T03:15:17;10.40;99.90
31263;DHT22;17892;52.080;9.006;2023-10-19T03:17:46;10.40;99.90
31263;DHT22;17892;52.080;9.006;2023-10-19T03:20:12;10.40;99.90
31263;DHT22;17892;52.080;9.006;2023-10-19T03:22:38;10.40;99.90
31263;DHT22;17892;52.080;9.006;2023-10-19T03:25:06;10.40;99.90
31263;DHT22;17892;52.080;9.006;2023-10-19T03:27:51;10.40;99.90
31263;DHT22;17892;52.080;9.006;2023-10-19T03:30:18;10.50;99.90
31263;DHT22;17892;52.080;9.006;2023-10-19T03:32:44;10.50;99.90
31263;DHT22;17892;52.080;9.006;2023-10-19T03:35:10;10.50;99.90
31263;DHT22;17892;52.080;9.006;2023-10-19T03:37:40;10.50;99.90
31263;DHT22;17892;52.080;9.006;2023-10-19T03:40:08;10.50;99.90
31263;DHT22;17892;52.080;9.006;2023-10-19T03:42:36;10.50;99.90
31263;DHT22;17892;52.080;9.006;2023-10-19T03:45:09;10.50;99.90
31263;DHT22;17892;52.080;9.006;2023-10-19T03:47:41;10.50;99.90
31263;DHT22;17892;52.080;9.006;2023-10-19T03:50:09;10.60;99.90
31263;DHT22;17892;52.080;9.006;2023-10-19T03:52:40;10.60;99.90
31263;DHT22;17892;52.080;9.006;2023-10-19T03:55:06;10.60;99.90
31263;DHT22;17892;52.080;9.006;2023-10-19T03:57:48;10.60;99.90
31263;DHT22;17892;52.080;9.006;2023-10-19T04:00:19;10.60;99.90
31263;DHT22;17892;52.080;9.006;2023-10-19T04:02:50;10.60;99.90
31263;DHT22;17892;52.080;9.006;2023-10-19T04:05:21;10.60;99.90
31263;DHT22;17892;52.080;9.006;2023-10-19T04:07:52;10.60;99.90
31263;DHT22;17892;52.080;9.006;2023-10-19T04:10:21;10.60;99.90
31263;DHT22;17892;52.080;9.006;2023-10-19T04:13:04;10.60;99.90
31263;DHT22;17892;52.080;9.006;2023-10-19T04:15:35;10.60;99.90
31263;DHT22;17892;52.080;9.006;2023-10-19T04:18:02;10.60;99.90
31263;DHT22;17892;52.080;9.006;2023-10-19T04:20:34;10.70;99.90
31263;DHT22;17892;52.080;9.006;2023-10-19T04:23:18;10.60;99.90
31263;DHT22;17892;52.080;9.006;2023-10-19T04:25:49;10.60;99.90
31263;DHT22;17892;52.080;9.006;2023-10-19T04:28:15;10.60;99.90
31263;DHT22;17892;52.080;9.006;2023-10-19T04:30:41;10.70;99.90
31263;DHT22;17892;52.080;9.006;2023-10-19T04:33:07;10.70;99.90
31263;DHT22;17892;52.080;9.006;2023-10-19T04:35:36;10.70;99.90
31263;DHT22;17892;52.080;9.006;2023-10-19T04:38:04;10.70;99.90
31263;DHT22;17892;52.080;9.006;2023-10-19T04:40:33;10.70;99.90
31263;DHT22;17892;52.080;9.006;2023-10-19T04:43:02;10.70;99.90
31263;DHT22;17892;52.080;9.006;2023-10-19T04:45:30;10.80;99.90
31263;DHT22;17892;52.080;9.006;2023-10-19T04:47:56;10.80;99.90
31263;DHT22;17892;52.080;9.006;2023-10-19T04:50:23;10.80;99.90
31263;DHT22;17892;52.080;9.006;2023-10-19T04:52:48;10.80;99.90
31263;DHT22;17892;52.080;9.006;2023-10-19T04:55:14;10.70;99.90
31263;DHT22;17892;52.080;9.006;2023-10-19T04:57:40;10.90;99.90
31263;DHT22;17892;52.080;9.006;2023-10-19T05:00:06;10.80;99.90
31263;DHT22;17892;52.080;9.006;2023-10-19T05:02:33;10.90;99.90
31263;DHT22;17892;52.080;9.006;2023-10-19T05:04:59;10.90;99.90
31263;DHT22;17892;52.080;9.006;2023-10-19T05:07:24;10.90;99.90
31263;DHT22;17892;52.080;9.006;2023-10-19T05:09:52;10.90;99.90
31263;DHT22;17892;52.080;9.006;2023-10-19T05:12:19;10.90;99.90
31263;DHT22;17892;52.080;9.006;2023-10-19T05:14:45;10.90;99.90
31263;DHT22;17892;52.080;9.006;2023-10-19T05:17:11;11.00;99.90
31263;DHT22;17892;52.080;9.006;2023-10-19T05:19:38;11.00;99.90
31263;DHT22;17892;52.080;9.006;2023-10-19T05:22:06;11.00;99.90
31263;DHT22;17892;52.080;9.006;2023-10-19T05:24:33;11.00;99.90
31263;DHT22;17892;52.080;9.006;2023-10-19T05:26:59;11.00;99.90
31263;DHT22;17892;52.080;9.006;2023-10-19T05:29:25;11.00;99.90
31263;DHT22;17892;52.080;9.006;2023-10-19T05:31:52;11.00;99.90
31263;DHT22;17892;52.080;9.006;2023-10-19T05:34:23;11.10;99.90
31263;DHT22;17892;52.080;9.006;2023-10-19T05:36:52;11.10;99.90
31263;DHT22;17892;52.080;9.006;2023-10-19T05:39:19;11.10;99.90
31263;DHT22;17892;52.080;9.006;2023-10-19T05:41:46;11.10;99.90
31263;DHT22;17892;52.080;9.006;2023-10-19T05:44:12;11.20;99.90
31263;DHT22;17892;52.080;9.006;2023-10-19T05:46:37;11.20;99.90
31263;DHT22;17892;52.080;9.006;2023-10-19T05:49:05;11.20;99.90
31263;DHT22;17892;52.080;9.006;2023-10-19T05:51:31;11.20;99.90
31263;DHT22;17892;52.080;9.006;2023-10-19T05:53:58;11.20;99.90
31263;DHT22;17892;52.080;9.006;2023-10-19T05:56:27;11.30;99.90
31263;DHT22;17892;52.080;9.006;2023-10-19T05:58:53;11.40;99.90
31263;DHT22;17892;52.080;9.006;2023-10-19T06:01:19;11.40;99.90
31263;DHT22;17892;52.080;9.006;2023-10-19T06:03:47;11.40;99.90
31263;DHT22;17892;52.080;9.006;2023-10-19T06:06:13;11.40;99.90
31263;DHT22;17892;52.080;9.006;2023-10-19T06:08:40;11.50;99.90
31263;DHT22;17892;52.080;9.006;2023-10-19T06:11:06;11.50;99.90
31263;DHT22;17892;52.080;9.006;2023-10-19T06:13:32;11.50;99.90
31263;DHT22;17892;52.080;9.006;2023-10-19T06:15:58;11.60;99.90
31263;DHT22;17892;52.080;9.006;2023-10-19T06:18:23;11.60;99.90
31263;DHT22;17892;52.080;9.006;2023-10-19T06:20:50;11.60;99.90
31263;DHT22;17892;52.080;9.006;2023-10-19T06:23:17;11.70;99.90
31263;DHT22;17892;52.080;9.006;2023-10-19T06:25:44;11.70;99.90
31263;DHT22;17892;52.080;9.006;2023-10-19T06:28:10;11.70;99.90
31263;DHT22;17892;52.080;9.006;2023-10-19T06:30:37;11.80;99.90
31263;DHT22;17892;52.080;9.006;2023-10-19T06:33:03;11.80;99.90
31263;DHT22;17892;52.080;9.006;2023-10-19T06:35:30;11.80;99.90
31263;DHT22;17892;52.080;9.006;2023-10-19T06:37:57;11.90;99.90
31263;DHT22;17892;52.080;9.006;2023-10-19T06:40:29;11.90;99.90
31263;DHT22;17892;52.080;9.006;2023-10-19T06:42:56;12.00;99.90
31263;DHT22;17892;52.080;9.006;2023-10-19T06:45:22;12.00;99.90
31263;DHT22;17892;52.080;9.006;2023-10-19T06:47:50;12.00;99.90
31263;DHT22;17892;52.080;9.006;2023-10-19T06:50:17;12.00;99.90
31263;DHT22;17892;52.080;9.006;2023-10-19T06:52:45;12.10;99.90
31263;DHT22;17892;52.080;9.006;2023-10-19T06:55:14;12.10;99.90
31263;DHT22;17892;52.080;9.006;2023-10-19T06:57:54;12.20;99.90
31263;DHT22;17892;52.080;9.006;2023-10-19T07:00:22;12.20;99.90
31263;DHT22;17892;52.080;9.006;2023-10-19T07:02:52;12.10;99.90
31263;DHT22;17892;52.080;9.006;2023-10-19T07:05:19;12.20;99.90
31263;DHT22;17892;52.080;9.006;2023-10-19T07:07:50;12.20;99.90
31263;DHT22;17892;52.080;9.006;2023-10-19T07:10:18;12.20;99.90
31263;DHT22;17892;52.080;9.006;2023-10-19T07:12:46;12.30;99.90
31263;DHT22;17892;52.080;9.006;2023-10-19T07:15:14;12.30;99.90
31263;DHT22;17892;52.080;9.006;2023-10-19T07:17:43;12.30;99.90
31263;DHT22;17892;52.080;9.006;2023-10-19T07:20:11;12.40;99.90
31263;DHT22;17892;52.080;9.006;2023-10-19T07:22:51;12.40;99.90
31263;DHT22;17892;52.080;9.006;2023-10-19T07:25:17;12.50;99.90
31263;DHT22;17892;52.080;9.006;2023-10-19T07:27:50;12.50;99.90
31263;DHT22;17892;52.080;9.006;2023-10-19T07:30:18;12.50;99.90
31263;DHT22;17892;52.080;9.006;2023-10-19T07:32:51;12.60;99.90
31263;DHT22;17892;52.080;9.006;2023-10-19T07:35:20;12.70;99.90
31263;DHT22;17892;52.080;9.006;2023-10-19T07:37:51;12.70;99.90
31263;DHT22;17892;52.080;9.006;2023-10-19T07:40:18;12.70;99.90
31263;DHT22;17892;52.080;9.006;2023-10-19T07:42:47;12.80;99.90
31263;DHT22;17892;52.080;9.006;2023-10-19T07:45:14;12.80;99.90
31263;DHT22;17892;52.080;9.006;2023-10-19T07:47:41;12.80;99.90
31263;DHT22;17892;52.080;9.006;2023-10-19T07:50:08;12.90;99.90
31263;DHT22;17892;52.080;9.006;2023-10-19T07:52:38;12.90;99.90
31263;DHT22;17892;52.080;9.006;2023-10-19T07:55:05;12.90;99.90
31263;DHT22;17892;52.080;9.006;2023-10-19T07:57:32;13.00;99.90
31263;DHT22;17892;52.080;9.006;2023-10-19T07:59:59;13.00;99.90
31263;DHT22;17892;52.080;9.006;2023-10-19T08:02:25;13.10;99.90
31263;DHT22;17892;52.080;9.006;2023-10-19T08:04:52;13.20;99.90
31263;DHT22;17892;52.080;9.006;2023-10-19T08:07:18;13.30;99.90
31263;DHT22;17892;52.080;9.006;2023-10-19T08:09:44;13.40;99.90
31263;DHT22;17892;52.080;9.006;2023-10-19T08:12:10;13.50;99.90
31263;DHT22;17892;52.080;9.006;2023-10-19T08:14:39;13.60;99.90
31263;DHT22;17892;52.080;9.006;2023-10-19T08:17:05;13.70;99.90
31263;DHT22;17892;52.080;9.006;2023-10-19T08:19:34;13.70;99.90
31263;DHT22;17892;52.080;9.006;2023-10-19T08:22:01;13.70;99.90
31263;DHT22;17892;52.080;9.006;2023-10-19T08:24:27;13.80;99.90
31263;DHT22;17892;52.080;9.006;2023-10-19T08:26:55;13.90;99.90
31263;DHT22;17892;52.080;9.006;2023-10-19T08:29:21;13.80;99.90
31263;DHT22;17892;52.080;9.006;2023-10-19T08:31:49;13.90;99.90
31263;DHT22;17892;52.080;9.006;2023-10-19T08:34:15;13.90;99.90
31263;DHT22;17892;52.080;9.006;2023-10-19T08:36:41;13.90;99.90
31263;DHT22;17892;52.080;9.006;2023-10-19T08:39:09;13.90;99.90
31263;DHT22;17892;52.080;9.006;2023-10-19T08:41:39;13.90;99.90
31263;DHT22;17892;52.080;9.006;2023-10-19T08:44:07;14.00;99.90
31263;DHT22;17892;52.080;9.006;2023-10-19T08:46:39;14.00;99.90
31263;DHT22;17892;52.080;9.006;2023-10-19T08:49:09;14.00;99.90
31263;DHT22;17892;52.080;9.006;2023-10-19T08:51:40;14.00;99.90
31263;DHT22;17892;52.080;9.006;2023-10-19T08:54:11;14.00;99.90
31263;DHT22;17892;52.080;9.006;2023-10-19T08:56:38;14.00;99.90
31263;DHT22;17892;52.080;9.006;2023-10-19T08:59:04;14.00;99.90
31263;DHT22;17892;52.080;9.006;2023-10-19T09:01:32;14.10;99.90
31263;DHT22;17892;52.080;9.006;2023-10-19T09:03:58;14.20;99.90
31263;DHT22;17892;52.080;9.006;2023-10-19T09:06:24;14.30;99.90
31263;DHT22;17892;52.080;9.006;2023-10-19T09:08:50;14.50;99.90
31263;DHT22;17892;52.080;9.006;2023-10-19T09:11:16;14.60;99.90
31263;DHT22;17892;52.080;9.006;2023-10-19T09:13:48;14.80;99.90
31263;DHT22;17892;52.080;9.006;2023-10-19T09:16:20;15.00;99.90
31263;DHT22;17892;52.080;9.006;2023-10-19T09:18:50;15.20;99.90
31263;DHT22;17892;52.080;9.006;2023-10-19T09:21:18;15.40;99.90
31263;DHT22;17892;52.080;9.006;2023-10-19T09:23:51;15.60;99.90
31263;DHT22;17892;52.080;9.006;2023-10-19T09:26:18;15.80;99.90
31263;DHT22;17892;52.080;9.006;2023-10-19T09:28:47;15.90;99.90
31263;DHT22;17892;52.080;9.006;2023-10-19T09:31:14;16.10;99.90
31263;DHT22;17892;52.080;9.006;2023-10-19T09:33:42;16.20;99.90
31263;DHT22;17892;52.080;9.006;2023-10-19T09:36:10;16.30;99.90
31263;DHT22;17892;52.080;9.006;2023-10-19T09:38:46;16.50;99.90
31263;DHT22;17892;52.080;9.006;2023-10-19T09:41:20;16.60;99.90
31263;DHT22;17892;52.080;9.006;2023-10-19T09:43:48;16.70;99.90
31263;DHT22;17892;52.080;9.006;2023-10-19T09:46:25;16.70;99.90
31263;DHT22;17892;52.080;9.006;2023-10-19T09:48:54;16.80;99.90
31263;DHT22;17892;52.080;9.006;2023-10-19T09:51:21;16.80;99.90
31263;DHT22;17892;52.080;9.006;2023-10-19T09:54:22;16.80;99.90
31263;DHT22;17892;52.080;9.006;2023-10-19T09:57:03;16.80;99.90
31263;DHT22;17892;52.080;9.006;2023-10-19T09:59:38;16.80;99.90
31263;DHT22;17892;52.080;9.006;2023-10-19T10:02:13;16.80;99.90
31263;DHT22;17892;52.080;9.006;2023-10-19T10:04:41;16.80;99.90
31263;DHT22;17892;52.080;9.006;2023-10-19T10:07:08;16.90;99.90
31263;DHT22;17892;52.080;9.006;2023-10-19T10:09:39;16.90;99.90
31263;DHT22;17892;52.080;9.006;2023-10-19T10:17:24;17.00;99.90
31263;DHT22;17892;52.080;9.006;2023-10-19T10:22:40;17.10;99.90
31263;DHT22;17892;52.080;9.006;2023-10-19T10:25:29;17.10;99.90
31263;DHT22;17892;52.080;9.006;2023-10-19T10:27:56;17.20;99.90
31263;DHT22;17892;52.080;9.006;2023-10-19T10:30:22;17.20;99.90
31263;DHT22;17892;52.080;9.006;2023-10-19T10:32:50;17.20;99.90
31263;DHT22;17892;52.080;9.006;2023-10-19T10:38:03;17.30;99.90
31263;DHT22;17892;52.080;9.006;2023-10-19T10:40:44;17.30;99.90
31263;DHT22;17892;52.080;9.006;2023-10-19T10:43:12;17.40;99.90
31263;DHT22;17892;52.080;9.006;2023-10-19T10:45:37;17.30;99.90
31263;DHT22;17892;52.080;9.006;2023-10-19T10:48:03;17.20;99.90
31263;DHT22;17892;52.080;9.006;2023-10-19T10:50:29;17.20;99.90
31263;DHT22;17892;52.080;9.006;2023-10-19T10:52:58;17.10;99.90
31263;DHT22;17892;52.080;9.006;2023-10-19T10:55:25;17.00;99.90
31263;DHT22;17892;52.080;9.006;2023-10-19T10:57:51;17.00;99.90
31263;DHT22;17892;52.080;9.006;2023-10-19T11:00:16;16.90;99.90
31263;DHT22;17892;52.080;9.006;2023-10-19T11:02:59;16.90;99.90
31263;DHT22;17892;52.080;9.006;2023-10-19T11:05:29;16.90;99.90
31263;DHT22;17892;52.080;9.006;2023-10-19T11:10:35;16.90;99.90
31263;DHT22;17892;52.080;9.006;2023-10-19T11:13:12;16.90;99.90
31263;DHT22;17892;52.080;9.006;2023-10-19T11:15:47;16.90;99.90
31263;DHT22;17892;52.080;9.006;2023-10-19T11:18:31;17.00;99.90
31263;DHT22;17892;52.080;9.006;2023-10-19T11:21:02;17.00;99.90
31263;DHT22;17892;52.080;9.006;2023-10-19T11:23:46;17.10;99.90
31263;DHT22;17892;52.080;9.006;2023-10-19T11:26:15;17.20;99.90
31263;DHT22;17892;52.080;9.006;2023-10-19T11:28:44;17.20;99.90
31263;DHT22;17892;52.080;9.006;2023-10-19T11:31:20;17.40;99.90
31263;DHT22;17892;52.080;9.006;2023-10-19T11:33:50;17.60;99.90
31263;DHT22;17892;52.080;9.006;2023-10-19T11:36:18;17.90;99.90
31263;DHT22;17892;52.080;9.006;2023-10-19T11:38:48;18.20;99.90
31263;DHT22;17892;52.080;9.006;2023-10-19T11:41:15;18.60;99.90
31263;DHT22;17892;52.080;9.006;2023-10-19T11:43:44;18.80;99.90
31263;DHT22;17892;52.080;9.006;2023-10-19T11:46:12;19.10;99.90
31263;DHT22;17892;52.080;9.006;2023-10-19T11:59:45;19.30;99.90
31263;DHT22;17892;52.080;9.006;2023-10-19T12:02:18;19.10;99.90
31263;DHT22;17892;52.080;9.006;2023-10-19T12:04:44;18.90;99.90
31263;DHT22;17892;52.080;9.006;2023-10-19T12:07:11;19.00;99.90
31263;DHT22;17892;52.080;9.006;2023-10-19T12:09:37;19.10;99.90
31263;DHT22;17892;52.080;9.006;2023-10-19T12:12:03;19.30;99.90
31263;DHT22;17892;52.080;9.006;2023-10-19T12:14:31;19.50;99.90
31263;DHT22;17892;52.080;9.006;2023-10-19T12:17:00;19.90;99.90
31263;DHT22;17892;52.080;9.006;2023-10-19T12:19:31;20.20;99.90
31263;DHT22;17892;52.080;9.006;2023-10-19T12:21:59;20.50;99.90
31263;DHT22;17892;52.080;9.006;2023-10-19T12:24:28;20.80;99.90
31263;DHT22;17892;52.080;9.006;2023-10-19T12:26:54;21.00;99.90
31263;DHT22;17892;52.080;9.006;2023-10-19T12:29:20;21.10;99.90
31263;DHT22;17892;52.080;9.006;2023-10-19T12:31:47;21.20;99.90
31263;DHT22;17892;52.080;9.006;2023-10-19T12:34:13;21.30;99.90
31263;DHT22;17892;52.080;9.006;2023-10-19T12:36:39;21.30;99.90
31263;DHT22;17892;52.080;9.006;2023-10-19T12:39:06;21.30;99.90
31263;DHT22;17892;52.080;9.006;2023-10-19T12:41:32;21.20;99.90
31263;DHT22;17892;52.080;9.006;2023-10-19T12:43:58;21.00;99.90
31263;DHT22;17892;52.080;9.006;2023-10-19T12:46:26;20.80;99.90
31263;DHT22;17892;52.080;9.006;2023-10-19T12:48:55;20.60;99.90
31263;DHT22;17892;52.080;9.006;2023-10-19T12:51:22;20.50;99.90
31263;DHT22;17892;52.080;9.006;2023-10-19T12:53:54;20.30;99.90
31263;DHT22;17892;52.080;9.006;2023-10-19T12:56:21;20.30;99.90
31263;DHT22;17892;52.080;9.006;2023-10-19T12:58:49;20.30;99.90
31263;DHT22;17892;52.080;9.006;2023-10-19T13:01:16;20.20;99.90
31263;DHT22;17892;52.080;9.006;2023-10-19T13:03:48;20.20;99.90
31263;DHT22;17892;52.080;9.006;2023-10-19T13:06:17;20.20;99.90
31263;DHT22;17892;52.080;9.006;2023-10-19T13:08:44;20.10;99.90
31263;DHT22;17892;52.080;9.006;2023-10-19T13:11:10;20.20;99.90
31263;DHT22;17892;52.080;9.006;2023-10-19T13:13:39;20.30;99.90
31263;DHT22;17892;52.080;9.006;2023-10-19T13:16:05;20.50;99.90
31263;DHT22;17892;52.080;9.006;2023-10-19T13:18:34;20.70;99.90
31263;DHT22;17892;52.080;9.006;2023-10-19T13:21:01;20.80;99.90
31263;DHT22;17892;52.080;9.006;2023-10-19T13:23:31;20.90;99.90
31263;DHT22;17892;52.080;9.006;2023-10-19T13:26:00;20.90;99.90
31263;DHT22;17892;52.080;9.006;2023-10-19T13:28:43;20.90;99.90
31263;DHT22;17892;52.080;9.006;2023-10-19T13:31:10;20.80;99.90
31263;DHT22;17892;52.080;9.006;2023-10-19T13:33:36;20.80;99.90
31263;DHT22;17892;52.080;9.006;2023-10-19T13:36:02;20.70;99.90
31263;DHT22;17892;52.080;9.006;2023-10-19T13:38:28;20.60;99.90
31263;DHT22;17892;52.080;9.006;2023-10-19T13:40:54;20.50;99.90
31263;DHT22;17892;52.080;9.006;2023-10-19T13:43:19;20.40;99.90
31263;DHT22;17892;52.080;9.006;2023-10-19T13:45:47;20.30;99.90
31263;DHT22;17892;52.080;9.006;2023-10-19T13:48:14;20.20;99.90
31263;DHT22;17892;52.080;9.006;2023-10-19T13:50:43;20.10;99.90
31263;DHT22;17892;52.080;9.006;2023-10-19T13:53:18;20.10;99.90
31263;DHT22;17892;52.080;9.006;2023-10-19T13:55:45;20.00;99.90
31263;DHT22;17892;52.080;9.006;2023-10-19T13:58:11;20.00;99.90
31263;DHT22;17892;52.080;9.006;2023-10-19T14:00:41;20.00;99.90
31263;DHT22;17892;52.080;9.006;2023-10-19T14:03:09;19.90;99.90
31263;DHT22;17892;52.080;9.006;2023-10-19T14:05:40;19.90;99.90
31263;DHT22;17892;52.080;9.006;2023-10-19T14:08:08;19.90;99.90
31263;DHT22;17892;52.080;9.006;2023-10-19T14:10:35;19.90;99.90
31263;DHT22;17892;52.080;9.006;2023-10-19T14:13:01;20.00;99.90
31263;DHT22;17892;52.080;9.006;2023-10-19T14:15:27;20.10;99.90
31263;DHT22;17892;52.080;9.006;2023-10-19T14:17:56;20.20;99.90
31263;DHT22;17892;52.080;9.006;2023-10-19T14:20:23;20.30;99.90
31263;DHT22;17892;52.080;9.006;2023-10-19T14:22:50;20.30;99.90
31263;DHT22;17892;52.080;9.006;2023-10-19T14:25:19;20.30;99.90
31263;DHT22;17892;52.080;9.006;2023-10-19T14:27:48;20.30;99.90
31263;DHT22;17892;52.080;9.006;2023-10-19T14:30:21;20.20;99.90
31263;DHT22;17892;52.080;9.006;2023-10-19T14:32:48;20.10;99.90
31263;DHT22;17892;52.080;9.006;2023-10-19T14:35:16;19.90;99.90
31263;DHT22;17892;52.080;9.006;2023-10-19T14:37:45;19.80;99.90
31263;DHT22;17892;52.080;9.006;2023-10-19T14:40:18;19.70;99.90
31263;DHT22;17892;52.080;9.006;2023-10-19T14:42:52;19.60;99.90
31263;DHT22;17892;52.080;9.006;2023-10-19T14:45:27;19.40;99.90
31263;DHT22;17892;52.080;9.006;2023-10-19T14:47:57;19.30;99.90
31263;DHT22;17892;52.080;9.006;2023-10-19T14:50:24;19.30;99.90
31263;DHT22;17892;52.080;9.006;2023-10-19T14:52:53;19.20;99.90
31263;DHT22;17892;52.080;9.006;2023-10-19T14:55:20;19.20;99.90
31263;DHT22;17892;52.080;9.006;2023-10-19T14:57:48;19.20;99.90
31263;DHT22;17892;52.080;9.006;2023-10-19T15:00:17;19.20;99.90
31263;DHT22;17892;52.080;9.006;2023-10-19T15:03:01;19.20;99.90
31263;DHT22;17892;52.080;9.006;2023-10-19T15:05:32;19.10;99.90
31263;DHT22;17892;52.080;9.006;2023-10-19T15:08:01;19.10;99.90
31263;DHT22;17892;52.080;9.006;2023-10-19T15:10:28;19.10;99.90
31263;DHT22;17892;52.080;9.006;2023-10-19T15:12:58;19.00;99.90
31263;DHT22;17892;52.080;9.006;2023-10-19T15:15:25;19.00;99.90
31263;DHT22;17892;52.080;9.006;2023-10-19T15:17:51;19.00;99.90
31263;DHT22;17892;52.080;9.006;2023-10-19T15:20:23;18.90;99.90
31263;DHT22;17892;52.080;9.006;2023-10-19T15:22:50;18.80;99.90
31263;DHT22;17892;52.080;9.006;2023-10-19T15:25:16;18.70;99.90
31263;DHT22;17892;52.080;9.006;2023-10-19T15:27:45;18.60;99.90
31263;DHT22;17892;52.080;9.006;2023-10-19T15:30:12;18.40;99.90
31263;DHT22;17892;52.080;9.006;2023-10-19T15:32:39;18.30;99.90
31263;DHT22;17892;52.080;9.006;2023-10-19T15:35:08;18.20;99.90
31263;DHT22;17892;52.080;9.006;2023-10-19T15:37:35;18.10;99.90
31263;DHT22;17892;52.080;9.006;2023-10-19T15:40:02;18.00;99.90
31263;DHT22;17892;52.080;9.006;2023-10-19T15:42:30;18.00;99.90
31263;DHT22;17892;52.080;9.006;2023-10-19T15:44:56;17.90;99.90
31263;DHT22;17892;52.080;9.006;2023-10-19T15:47:22;17.90;99.90
31263;DHT22;17892;52.080;9.006;2023-10-19T15:49:51;17.90;99.90
31263;DHT22;17892;52.080;9.006;2023-10-19T15:52:25;17.90;99.90
31263;DHT22;17892;52.080;9.006;2023-10-19T15:54:54;17.80;99.90
31263;DHT22;17892;52.080;9.006;2023-10-19T15:57:21;17.80;99.90
31263;DHT22;17892;52.080;9.006;2023-10-19T15:59:47;17.80;99.90
31263;DHT22;17892;52.080;9.006;2023-10-19T16:02:13;17.70;99.90
31263;DHT22;17892;52.080;9.006;2023-10-19T16:04:41;17.70;99.90
31263;DHT22;17892;52.080;9.006;2023-10-19T16:07:09;17.60;99.90
31263;DHT22;17892;52.080;9.006;2023-10-19T16:09:36;17.60;99.90
31263;DHT22;17892;52.080;9.006;2023-10-19T16:12:03;17.50;99.90
31263;DHT22;17892;52.080;9.006;2023-10-19T16:14:29;17.50;99.90
31263;DHT22;17892;52.080;9.006;2023-10-19T16:16:55;17.40;99.90